Persoonlijke hulpmiddelen
Inloggen

MoF Achterveld Eerbeek

Extensible Markup Language (XML) icon MoF Achterveld - Eerbeek.gpx — Extensible Markup Language (XML), 76 KB (78011 bytes)

Bestandsinhoud

<?xml version="1.0"?>
<gpx xmlns="http://www.topografix.com/GPX/1/1" version="1.1" creator="afstandmeten.nl" xmlns:xsi="http://www.w3.org/2001/XMLSchema-instance" xsi:schemaLocation="http://www.topografix.com/GPX/1/1 http://www.topografix.com/GPX/1/1/gpx.xsd">
  <trk>
    <name>MoF Achterveld - Eerbeek</name>
    <desc></desc>
    <trkseg>
      <trkpt lat="52.1346208" lon="5.496667">
        <time>2017-09-22T00:00:00Z</time>
      </trkpt>
      <trkpt lat="52.13425" lon="5.49748">
        <time>2017-09-22T00:00:05Z</time>
      </trkpt>
      <trkpt lat="52.1342" lon="5.4977">
        <time>2017-09-22T00:00:06Z</time>
      </trkpt>
      <trkpt lat="52.13415" lon="5.49799">
        <time>2017-09-22T00:00:08Z</time>
      </trkpt>
      <trkpt lat="52.13415" lon="5.49855">
        <time>2017-09-22T00:00:11Z</time>
      </trkpt>
      <trkpt lat="52.13429" lon="5.50031">
        <time>2017-09-22T00:00:19Z</time>
      </trkpt>
      <trkpt lat="52.13433" lon="5.50057">
        <time>2017-09-22T00:00:20Z</time>
      </trkpt>
      <trkpt lat="52.13452" lon="5.50117">
        <time>2017-09-22T00:00:23Z</time>
      </trkpt>
      <trkpt lat="52.13473" lon="5.50181">
        <time>2017-09-22T00:00:27Z</time>
      </trkpt>
      <trkpt lat="52.13479" lon="5.5021">
        <time>2017-09-22T00:00:28Z</time>
      </trkpt>
      <trkpt lat="52.13482" lon="5.50243">
        <time>2017-09-22T00:00:30Z</time>
      </trkpt>
      <trkpt lat="52.13483" lon="5.50303">
        <time>2017-09-22T00:00:33Z</time>
      </trkpt>
      <trkpt lat="52.13484" lon="5.5041">
        <time>2017-09-22T00:00:38Z</time>
      </trkpt>
      <trkpt lat="52.13486" lon="5.50871">
        <time>2017-09-22T00:01:00Z</time>
      </trkpt>
      <trkpt lat="52.13479" lon="5.50935">
        <time>2017-09-22T00:01:03Z</time>
      </trkpt>
      <trkpt lat="52.13447" lon="5.51062">
        <time>2017-09-22T00:01:10Z</time>
      </trkpt>
      <trkpt lat="52.13432" lon="5.51123">
        <time>2017-09-22T00:01:13Z</time>
      </trkpt>
      <trkpt lat="52.13427" lon="5.51156">
        <time>2017-09-22T00:01:14Z</time>
      </trkpt>
      <trkpt lat="52.13422" lon="5.51202">
        <time>2017-09-22T00:01:17Z</time>
      </trkpt>
      <trkpt lat="52.13422" lon="5.51202">
        <time>2017-09-22T00:01:17Z</time>
      </trkpt>
      <trkpt lat="52.13398" lon="5.51207">
        <time>2017-09-22T00:01:18Z</time>
      </trkpt>
      <trkpt lat="52.13379" lon="5.51208">
        <time>2017-09-22T00:01:20Z</time>
      </trkpt>
      <trkpt lat="52.13336" lon="5.51209">
        <time>2017-09-22T00:01:23Z</time>
      </trkpt>
      <trkpt lat="52.13277" lon="5.51206">
        <time>2017-09-22T00:01:28Z</time>
      </trkpt>
      <trkpt lat="52.13253" lon="5.51206">
        <time>2017-09-22T00:01:30Z</time>
      </trkpt>
      <trkpt lat="52.13233" lon="5.51214">
        <time>2017-09-22T00:01:31Z</time>
      </trkpt>
      <trkpt lat="52.13225" lon="5.51224">
        <time>2017-09-22T00:01:32Z</time>
      </trkpt>
      <trkpt lat="52.1322" lon="5.51235">
        <time>2017-09-22T00:01:33Z</time>
      </trkpt>
      <trkpt lat="52.13207" lon="5.51275">
        <time>2017-09-22T00:01:35Z</time>
      </trkpt>
      <trkpt lat="52.13195" lon="5.5132">
        <time>2017-09-22T00:01:37Z</time>
      </trkpt>
      <trkpt lat="52.13185" lon="5.5135">
        <time>2017-09-22T00:01:39Z</time>
      </trkpt>
      <trkpt lat="52.13146" lon="5.51431">
        <time>2017-09-22T00:01:44Z</time>
      </trkpt>
      <trkpt lat="52.13067" lon="5.5157">
        <time>2017-09-22T00:01:53Z</time>
      </trkpt>
      <trkpt lat="52.12987" lon="5.51719">
        <time>2017-09-22T00:02:02Z</time>
      </trkpt>
      <trkpt lat="52.12945" lon="5.51797">
        <time>2017-09-22T00:02:07Z</time>
      </trkpt>
      <trkpt lat="52.1293" lon="5.51819">
        <time>2017-09-22T00:02:09Z</time>
      </trkpt>
      <trkpt lat="52.129" lon="5.5187">
        <time>2017-09-22T00:02:12Z</time>
      </trkpt>
      <trkpt lat="52.12893" lon="5.51896">
        <time>2017-09-22T00:02:13Z</time>
      </trkpt>
      <trkpt lat="52.12883" lon="5.51953">
        <time>2017-09-22T00:02:16Z</time>
      </trkpt>
      <trkpt lat="52.12825" lon="5.52424">
        <time>2017-09-22T00:02:39Z</time>
      </trkpt>
      <trkpt lat="52.12821" lon="5.52441">
        <time>2017-09-22T00:02:40Z</time>
      </trkpt>
      <trkpt lat="52.12814" lon="5.52459">
        <time>2017-09-22T00:02:41Z</time>
      </trkpt>
      <trkpt lat="52.12806" lon="5.52471">
        <time>2017-09-22T00:02:42Z</time>
      </trkpt>
      <trkpt lat="52.12797" lon="5.52477">
        <time>2017-09-22T00:02:43Z</time>
      </trkpt>
      <trkpt lat="52.12789" lon="5.5248">
        <time>2017-09-22T00:02:43Z</time>
      </trkpt>
      <trkpt lat="52.12769" lon="5.52478">
        <time>2017-09-22T00:02:45Z</time>
      </trkpt>
      <trkpt lat="52.12721" lon="5.52468">
        <time>2017-09-22T00:02:49Z</time>
      </trkpt>
      <trkpt lat="52.12701" lon="5.52469">
        <time>2017-09-22T00:02:50Z</time>
      </trkpt>
      <trkpt lat="52.12673" lon="5.52479">
        <time>2017-09-22T00:02:52Z</time>
      </trkpt>
      <trkpt lat="52.12649" lon="5.52495">
        <time>2017-09-22T00:02:54Z</time>
      </trkpt>
      <trkpt lat="52.12627" lon="5.5253">
        <time>2017-09-22T00:02:57Z</time>
      </trkpt>
      <trkpt lat="52.12581" lon="5.52626">
        <time>2017-09-22T00:03:03Z</time>
      </trkpt>
      <trkpt lat="52.12524" lon="5.52731">
        <time>2017-09-22T00:03:09Z</time>
      </trkpt>
      <trkpt lat="52.12481" lon="5.52816">
        <time>2017-09-22T00:03:14Z</time>
      </trkpt>
      <trkpt lat="52.12434" lon="5.52909">
        <time>2017-09-22T00:03:20Z</time>
      </trkpt>
      <trkpt lat="52.12398" lon="5.52972">
        <time>2017-09-22T00:03:24Z</time>
      </trkpt>
      <trkpt lat="52.12381" lon="5.52993">
        <time>2017-09-22T00:03:26Z</time>
      </trkpt>
      <trkpt lat="52.12338" lon="5.53028">
        <time>2017-09-22T00:03:30Z</time>
      </trkpt>
      <trkpt lat="52.12289" lon="5.5306">
        <time>2017-09-22T00:03:34Z</time>
      </trkpt>
      <trkpt lat="52.12253" lon="5.53081">
        <time>2017-09-22T00:03:37Z</time>
      </trkpt>
      <trkpt lat="52.12218" lon="5.53111">
        <time>2017-09-22T00:03:40Z</time>
      </trkpt>
      <trkpt lat="52.12192" lon="5.53153">
        <time>2017-09-22T00:03:43Z</time>
      </trkpt>
      <trkpt lat="52.12173" lon="5.53191">
        <time>2017-09-22T00:03:45Z</time>
      </trkpt>
      <trkpt lat="52.12138" lon="5.53271">
        <time>2017-09-22T00:03:50Z</time>
      </trkpt>
      <trkpt lat="52.12122" lon="5.53305">
        <time>2017-09-22T00:03:52Z</time>
      </trkpt>
      <trkpt lat="52.12122" lon="5.53305">
        <time>2017-09-22T00:03:52Z</time>
      </trkpt>
      <trkpt lat="52.12097" lon="5.53352">
        <time>2017-09-22T00:03:55Z</time>
      </trkpt>
      <trkpt lat="52.12048" lon="5.5344">
        <time>2017-09-22T00:04:00Z</time>
      </trkpt>
      <trkpt lat="52.12042" lon="5.53445">
        <time>2017-09-22T00:04:01Z</time>
      </trkpt>
      <trkpt lat="52.12031" lon="5.5346">
        <time>2017-09-22T00:04:02Z</time>
      </trkpt>
      <trkpt lat="52.12012" lon="5.53489">
        <time>2017-09-22T00:04:04Z</time>
      </trkpt>
      <trkpt lat="52.11993" lon="5.53523">
        <time>2017-09-22T00:04:06Z</time>
      </trkpt>
      <trkpt lat="52.11986" lon="5.53544">
        <time>2017-09-22T00:04:07Z</time>
      </trkpt>
      <trkpt lat="52.11985" lon="5.53559">
        <time>2017-09-22T00:04:08Z</time>
      </trkpt>
      <trkpt lat="52.11979" lon="5.53592">
        <time>2017-09-22T00:04:10Z</time>
      </trkpt>
      <trkpt lat="52.11944" lon="5.539">
        <time>2017-09-22T00:04:25Z</time>
      </trkpt>
      <trkpt lat="52.11931" lon="5.53998">
        <time>2017-09-22T00:04:29Z</time>
      </trkpt>
      <trkpt lat="52.11922" lon="5.54059">
        <time>2017-09-22T00:04:32Z</time>
      </trkpt>
      <trkpt lat="52.11916" lon="5.54074">
        <time>2017-09-22T00:04:33Z</time>
      </trkpt>
      <trkpt lat="52.11909" lon="5.54111">
        <time>2017-09-22T00:04:35Z</time>
      </trkpt>
      <trkpt lat="52.11902" lon="5.54113">
        <time>2017-09-22T00:04:36Z</time>
      </trkpt>
      <trkpt lat="52.11898" lon="5.5412">
        <time>2017-09-22T00:04:36Z</time>
      </trkpt>
      <trkpt lat="52.11895" lon="5.54132">
        <time>2017-09-22T00:04:37Z</time>
      </trkpt>
      <trkpt lat="52.11896" lon="5.54141">
        <time>2017-09-22T00:04:37Z</time>
      </trkpt>
      <trkpt lat="52.11897" lon="5.54145">
        <time>2017-09-22T00:04:37Z</time>
      </trkpt>
      <trkpt lat="52.11891" lon="5.54163">
        <time>2017-09-22T00:04:38Z</time>
      </trkpt>
      <trkpt lat="52.11882" lon="5.54189">
        <time>2017-09-22T00:04:40Z</time>
      </trkpt>
      <trkpt lat="52.11879" lon="5.54204">
        <time>2017-09-22T00:04:41Z</time>
      </trkpt>
      <trkpt lat="52.11856" lon="5.54252">
        <time>2017-09-22T00:04:43Z</time>
      </trkpt>
      <trkpt lat="52.11847" lon="5.54283">
        <time>2017-09-22T00:04:45Z</time>
      </trkpt>
      <trkpt lat="52.11834" lon="5.54338">
        <time>2017-09-22T00:04:48Z</time>
      </trkpt>
      <trkpt lat="52.11827" lon="5.5436">
        <time>2017-09-22T00:04:49Z</time>
      </trkpt>
      <trkpt lat="52.11793" lon="5.5444">
        <time>2017-09-22T00:04:54Z</time>
      </trkpt>
      <trkpt lat="52.11743" lon="5.5455">
        <time>2017-09-22T00:05:00Z</time>
      </trkpt>
      <trkpt lat="52.11732" lon="5.54582">
        <time>2017-09-22T00:05:02Z</time>
      </trkpt>
      <trkpt lat="52.11724" lon="5.54613">
        <time>2017-09-22T00:05:04Z</time>
      </trkpt>
      <trkpt lat="52.11711" lon="5.54681">
        <time>2017-09-22T00:05:07Z</time>
      </trkpt>
      <trkpt lat="52.11701" lon="5.54795">
        <time>2017-09-22T00:05:12Z</time>
      </trkpt>
      <trkpt lat="52.11689" lon="5.54857">
        <time>2017-09-22T00:05:16Z</time>
      </trkpt>
      <trkpt lat="52.11653" lon="5.54941">
        <time>2017-09-22T00:05:20Z</time>
      </trkpt>
      <trkpt lat="52.11555" lon="5.55137">
        <time>2017-09-22T00:05:32Z</time>
      </trkpt>
      <trkpt lat="52.1154" lon="5.55163">
        <time>2017-09-22T00:05:34Z</time>
      </trkpt>
      <trkpt lat="52.11479" lon="5.5526">
        <time>2017-09-22T00:05:41Z</time>
      </trkpt>
      <trkpt lat="52.11466" lon="5.55276">
        <time>2017-09-22T00:05:42Z</time>
      </trkpt>
      <trkpt lat="52.11454" lon="5.55285">
        <time>2017-09-22T00:05:43Z</time>
      </trkpt>
      <trkpt lat="52.11429" lon="5.553">
        <time>2017-09-22T00:05:45Z</time>
      </trkpt>
      <trkpt lat="52.11405" lon="5.55313">
        <time>2017-09-22T00:05:47Z</time>
      </trkpt>
      <trkpt lat="52.11386" lon="5.55327">
        <time>2017-09-22T00:05:49Z</time>
      </trkpt>
      <trkpt lat="52.11367" lon="5.55351">
        <time>2017-09-22T00:05:51Z</time>
      </trkpt>
      <trkpt lat="52.11359" lon="5.55368">
        <time>2017-09-22T00:05:52Z</time>
      </trkpt>
      <trkpt lat="52.11351" lon="5.55401">
        <time>2017-09-22T00:05:53Z</time>
      </trkpt>
      <trkpt lat="52.1131" lon="5.5539">
        <time>2017-09-22T00:05:57Z</time>
      </trkpt>
      <trkpt lat="52.11269" lon="5.55379">
        <time>2017-09-22T00:06:00Z</time>
      </trkpt>
      <trkpt lat="52.11264" lon="5.55384">
        <time>2017-09-22T00:06:00Z</time>
      </trkpt>
      <trkpt lat="52.1125" lon="5.55392">
        <time>2017-09-22T00:06:01Z</time>
      </trkpt>
      <trkpt lat="52.11185" lon="5.55425">
        <time>2017-09-22T00:06:07Z</time>
      </trkpt>
      <trkpt lat="52.11138" lon="5.55451">
        <time>2017-09-22T00:06:11Z</time>
      </trkpt>
      <trkpt lat="52.11129" lon="5.55459">
        <time>2017-09-22T00:06:11Z</time>
      </trkpt>
      <trkpt lat="52.11112" lon="5.55483">
        <time>2017-09-22T00:06:13Z</time>
      </trkpt>
      <trkpt lat="52.11006" lon="5.55631">
        <time>2017-09-22T00:06:24Z</time>
      </trkpt>
      <trkpt lat="52.10896" lon="5.55784">
        <time>2017-09-22T00:06:35Z</time>
      </trkpt>
      <trkpt lat="52.10859" lon="5.55836">
        <time>2017-09-22T00:06:39Z</time>
      </trkpt>
      <trkpt lat="52.10846" lon="5.55849">
        <time>2017-09-22T00:06:40Z</time>
      </trkpt>
      <trkpt lat="52.10828" lon="5.5586">
        <time>2017-09-22T00:06:42Z</time>
      </trkpt>
      <trkpt lat="52.10795" lon="5.55879">
        <time>2017-09-22T00:06:44Z</time>
      </trkpt>
      <trkpt lat="52.10778" lon="5.55894">
        <time>2017-09-22T00:06:46Z</time>
      </trkpt>
      <trkpt lat="52.10766" lon="5.55907">
        <time>2017-09-22T00:06:47Z</time>
      </trkpt>
      <trkpt lat="52.10695" lon="5.56015">
        <time>2017-09-22T00:06:54Z</time>
      </trkpt>
      <trkpt lat="52.10605" lon="5.56155">
        <time>2017-09-22T00:07:04Z</time>
      </trkpt>
      <trkpt lat="52.10661" lon="5.56373">
        <time>2017-09-22T00:07:15Z</time>
      </trkpt>
      <trkpt lat="52.10683" lon="5.56442">
        <time>2017-09-22T00:07:19Z</time>
      </trkpt>
      <trkpt lat="52.10683" lon="5.56442">
        <time>2017-09-22T00:07:19Z</time>
      </trkpt>
      <trkpt lat="52.10729" lon="5.56599">
        <time>2017-09-22T00:07:27Z</time>
      </trkpt>
      <trkpt lat="52.10758" lon="5.56694">
        <time>2017-09-22T00:07:32Z</time>
      </trkpt>
      <trkpt lat="52.10788" lon="5.5677">
        <time>2017-09-22T00:07:37Z</time>
      </trkpt>
      <trkpt lat="52.1084" lon="5.56888">
        <time>2017-09-22T00:07:44Z</time>
      </trkpt>
      <trkpt lat="52.10851" lon="5.56914">
        <time>2017-09-22T00:07:45Z</time>
      </trkpt>
      <trkpt lat="52.10882" lon="5.56983">
        <time>2017-09-22T00:07:49Z</time>
      </trkpt>
      <trkpt lat="52.10939" lon="5.57115">
        <time>2017-09-22T00:07:57Z</time>
      </trkpt>
      <trkpt lat="52.10966" lon="5.57163">
        <time>2017-09-22T00:08:00Z</time>
      </trkpt>
      <trkpt lat="52.11012" lon="5.57223">
        <time>2017-09-22T00:08:05Z</time>
      </trkpt>
      <trkpt lat="52.1105" lon="5.57268">
        <time>2017-09-22T00:08:08Z</time>
      </trkpt>
      <trkpt lat="52.11072" lon="5.57283">
        <time>2017-09-22T00:08:10Z</time>
      </trkpt>
      <trkpt lat="52.11158" lon="5.57332">
        <time>2017-09-22T00:08:17Z</time>
      </trkpt>
      <trkpt lat="52.11167" lon="5.57337">
        <time>2017-09-22T00:08:18Z</time>
      </trkpt>
      <trkpt lat="52.11203" lon="5.57356">
        <time>2017-09-22T00:08:21Z</time>
      </trkpt>
      <trkpt lat="52.11216" lon="5.57362">
        <time>2017-09-22T00:08:22Z</time>
      </trkpt>
      <trkpt lat="52.11299" lon="5.57415">
        <time>2017-09-22T00:08:29Z</time>
      </trkpt>
      <trkpt lat="52.11372" lon="5.57463">
        <time>2017-09-22T00:08:35Z</time>
      </trkpt>
      <trkpt lat="52.11395" lon="5.57483">
        <time>2017-09-22T00:08:37Z</time>
      </trkpt>
      <trkpt lat="52.11427" lon="5.5751">
        <time>2017-09-22T00:08:40Z</time>
      </trkpt>
      <trkpt lat="52.11467" lon="5.57541">
        <time>2017-09-22T00:08:43Z</time>
      </trkpt>
      <trkpt lat="52.11542" lon="5.5759">
        <time>2017-09-22T00:08:50Z</time>
      </trkpt>
      <trkpt lat="52.11602" lon="5.57631">
        <time>2017-09-22T00:08:55Z</time>
      </trkpt>
      <trkpt lat="52.11679" lon="5.57684">
        <time>2017-09-22T00:09:01Z</time>
      </trkpt>
      <trkpt lat="52.11695" lon="5.577">
        <time>2017-09-22T00:09:03Z</time>
      </trkpt>
      <trkpt lat="52.11719" lon="5.57712">
        <time>2017-09-22T00:09:04Z</time>
      </trkpt>
      <trkpt lat="52.11747" lon="5.57715">
        <time>2017-09-22T00:09:07Z</time>
      </trkpt>
      <trkpt lat="52.11762" lon="5.57814">
        <time>2017-09-22T00:09:11Z</time>
      </trkpt>
      <trkpt lat="52.11764" lon="5.57854">
        <time>2017-09-22T00:09:13Z</time>
      </trkpt>
      <trkpt lat="52.1176" lon="5.57977">
        <time>2017-09-22T00:09:19Z</time>
      </trkpt>
      <trkpt lat="52.11759" lon="5.58002">
        <time>2017-09-22T00:09:20Z</time>
      </trkpt>
      <trkpt lat="52.11759" lon="5.58002">
        <time>2017-09-22T00:09:20Z</time>
      </trkpt>
      <trkpt lat="52.11764" lon="5.58036">
        <time>2017-09-22T00:09:22Z</time>
      </trkpt>
      <trkpt lat="52.11775" lon="5.58081">
        <time>2017-09-22T00:09:24Z</time>
      </trkpt>
      <trkpt lat="52.11777" lon="5.58088">
        <time>2017-09-22T00:09:25Z</time>
      </trkpt>
      <trkpt lat="52.11775" lon="5.58097">
        <time>2017-09-22T00:09:25Z</time>
      </trkpt>
      <trkpt lat="52.11721" lon="5.58194">
        <time>2017-09-22T00:09:32Z</time>
      </trkpt>
      <trkpt lat="52.11654" lon="5.58337">
        <time>2017-09-22T00:09:40Z</time>
      </trkpt>
      <trkpt lat="52.11591" lon="5.58497">
        <time>2017-09-22T00:09:49Z</time>
      </trkpt>
      <trkpt lat="52.11537" lon="5.58648">
        <time>2017-09-22T00:09:57Z</time>
      </trkpt>
      <trkpt lat="52.11523" lon="5.58692">
        <time>2017-09-22T00:10:00Z</time>
      </trkpt>
      <trkpt lat="52.1152" lon="5.58708">
        <time>2017-09-22T00:10:01Z</time>
      </trkpt>
      <trkpt lat="52.11627" lon="5.59006">
        <time>2017-09-22T00:10:17Z</time>
      </trkpt>
      <trkpt lat="52.11642" lon="5.59078">
        <time>2017-09-22T00:10:21Z</time>
      </trkpt>
      <trkpt lat="52.1168" lon="5.59184">
        <time>2017-09-22T00:10:27Z</time>
      </trkpt>
      <trkpt lat="52.11737" lon="5.59337">
        <time>2017-09-22T00:10:35Z</time>
      </trkpt>
      <trkpt lat="52.11739" lon="5.59346">
        <time>2017-09-22T00:10:36Z</time>
      </trkpt>
      <trkpt lat="52.11737" lon="5.59362">
        <time>2017-09-22T00:10:36Z</time>
      </trkpt>
      <trkpt lat="52.11652" lon="5.59663">
        <time>2017-09-22T00:10:52Z</time>
      </trkpt>
      <trkpt lat="52.11648" lon="5.59678">
        <time>2017-09-22T00:10:53Z</time>
      </trkpt>
      <trkpt lat="52.11697" lon="5.59637">
        <time>2017-09-22T00:10:57Z</time>
      </trkpt>
      <trkpt lat="52.11747" lon="5.59596">
        <time>2017-09-22T00:11:02Z</time>
      </trkpt>
      <trkpt lat="52.11744" lon="5.5961">
        <time>2017-09-22T00:11:02Z</time>
      </trkpt>
      <trkpt lat="52.11651" lon="5.59897">
        <time>2017-09-22T00:11:18Z</time>
      </trkpt>
      <trkpt lat="52.11579" lon="5.60114">
        <time>2017-09-22T00:11:29Z</time>
      </trkpt>
      <trkpt lat="52.11579" lon="5.60114">
        <time>2017-09-22T00:11:29Z</time>
      </trkpt>
      <trkpt lat="52.11422" lon="5.60589">
        <time>2017-09-22T00:11:55Z</time>
      </trkpt>
      <trkpt lat="52.11323" lon="5.60899">
        <time>2017-09-22T00:12:12Z</time>
      </trkpt>
      <trkpt lat="52.1129" lon="5.60983">
        <time>2017-09-22T00:12:17Z</time>
      </trkpt>
      <trkpt lat="52.11246" lon="5.61094">
        <time>2017-09-22T00:12:23Z</time>
      </trkpt>
      <trkpt lat="52.11232" lon="5.61116">
        <time>2017-09-22T00:12:24Z</time>
      </trkpt>
      <trkpt lat="52.11179" lon="5.61178">
        <time>2017-09-22T00:12:29Z</time>
      </trkpt>
      <trkpt lat="52.11167" lon="5.612">
        <time>2017-09-22T00:12:31Z</time>
      </trkpt>
      <trkpt lat="52.11155" lon="5.61232">
        <time>2017-09-22T00:12:33Z</time>
      </trkpt>
      <trkpt lat="52.1113" lon="5.61304">
        <time>2017-09-22T00:12:37Z</time>
      </trkpt>
      <trkpt lat="52.11099" lon="5.61384">
        <time>2017-09-22T00:12:41Z</time>
      </trkpt>
      <trkpt lat="52.11035" lon="5.61549">
        <time>2017-09-22T00:12:50Z</time>
      </trkpt>
      <trkpt lat="52.10857" lon="5.62007">
        <time>2017-09-22T00:13:16Z</time>
      </trkpt>
      <trkpt lat="52.10835" lon="5.62072">
        <time>2017-09-22T00:13:20Z</time>
      </trkpt>
      <trkpt lat="52.10827" lon="5.62101">
        <time>2017-09-22T00:13:21Z</time>
      </trkpt>
      <trkpt lat="52.10805" lon="5.62168">
        <time>2017-09-22T00:13:25Z</time>
      </trkpt>
      <trkpt lat="52.10736" lon="5.62349">
        <time>2017-09-22T00:13:35Z</time>
      </trkpt>
      <trkpt lat="52.10774" lon="5.62455">
        <time>2017-09-22T00:13:41Z</time>
      </trkpt>
      <trkpt lat="52.10774" lon="5.62455">
        <time>2017-09-22T00:13:41Z</time>
      </trkpt>
      <trkpt lat="52.10812" lon="5.62559">
        <time>2017-09-22T00:13:47Z</time>
      </trkpt>
      <trkpt lat="52.10833" lon="5.62645">
        <time>2017-09-22T00:13:51Z</time>
      </trkpt>
      <trkpt lat="52.10839" lon="5.62722">
        <time>2017-09-22T00:13:55Z</time>
      </trkpt>
      <trkpt lat="52.10854" lon="5.62762">
        <time>2017-09-22T00:13:57Z</time>
      </trkpt>
      <trkpt lat="52.10896" lon="5.62915">
        <time>2017-09-22T00:14:05Z</time>
      </trkpt>
      <trkpt lat="52.10923" lon="5.63011">
        <time>2017-09-22T00:14:10Z</time>
      </trkpt>
      <trkpt lat="52.10937" lon="5.63039">
        <time>2017-09-22T00:14:12Z</time>
      </trkpt>
      <trkpt lat="52.1095" lon="5.6306">
        <time>2017-09-22T00:14:13Z</time>
      </trkpt>
      <trkpt lat="52.10875" lon="5.63105">
        <time>2017-09-22T00:14:19Z</time>
      </trkpt>
      <trkpt lat="52.10797" lon="5.63172">
        <time>2017-09-22T00:14:26Z</time>
      </trkpt>
      <trkpt lat="52.10769" lon="5.63205">
        <time>2017-09-22T00:14:29Z</time>
      </trkpt>
      <trkpt lat="52.10769" lon="5.63205">
        <time>2017-09-22T00:14:29Z</time>
      </trkpt>
      <trkpt lat="52.10639" lon="5.63355">
        <time>2017-09-22T00:14:41Z</time>
      </trkpt>
      <trkpt lat="52.10615" lon="5.63393">
        <time>2017-09-22T00:14:44Z</time>
      </trkpt>
      <trkpt lat="52.10516" lon="5.63609">
        <time>2017-09-22T00:14:57Z</time>
      </trkpt>
      <trkpt lat="52.10502" lon="5.63632">
        <time>2017-09-22T00:14:58Z</time>
      </trkpt>
      <trkpt lat="52.10434" lon="5.6371">
        <time>2017-09-22T00:15:05Z</time>
      </trkpt>
      <trkpt lat="52.1048" lon="5.63777">
        <time>2017-09-22T00:15:10Z</time>
      </trkpt>
      <trkpt lat="52.1048" lon="5.63777">
        <time>2017-09-22T00:15:10Z</time>
      </trkpt>
      <trkpt lat="52.10663" lon="5.64039">
        <time>2017-09-22T00:15:28Z</time>
      </trkpt>
      <trkpt lat="52.10818" lon="5.64238">
        <time>2017-09-22T00:15:44Z</time>
      </trkpt>
      <trkpt lat="52.10957" lon="5.64412">
        <time>2017-09-22T00:15:57Z</time>
      </trkpt>
      <trkpt lat="52.11001" lon="5.64468">
        <time>2017-09-22T00:16:02Z</time>
      </trkpt>
      <trkpt lat="52.11051" lon="5.64523">
        <time>2017-09-22T00:16:06Z</time>
      </trkpt>
      <trkpt lat="52.11303" lon="5.64749">
        <time>2017-09-22T00:16:29Z</time>
      </trkpt>
      <trkpt lat="52.11565" lon="5.64986">
        <time>2017-09-22T00:16:52Z</time>
      </trkpt>
      <trkpt lat="52.11673" lon="5.65075">
        <time>2017-09-22T00:17:01Z</time>
      </trkpt>
      <trkpt lat="52.11955" lon="5.65333">
        <time>2017-09-22T00:17:26Z</time>
      </trkpt>
      <trkpt lat="52.1198" lon="5.65362">
        <time>2017-09-22T00:17:29Z</time>
      </trkpt>
      <trkpt lat="52.11986" lon="5.65381">
        <time>2017-09-22T00:17:30Z</time>
      </trkpt>
      <trkpt lat="52.12003" lon="5.65491">
        <time>2017-09-22T00:17:35Z</time>
      </trkpt>
      <trkpt lat="52.1201" lon="5.65521">
        <time>2017-09-22T00:17:37Z</time>
      </trkpt>
      <trkpt lat="52.12018" lon="5.65547">
        <time>2017-09-22T00:17:38Z</time>
      </trkpt>
      <trkpt lat="52.12064" lon="5.6565">
        <time>2017-09-22T00:17:44Z</time>
      </trkpt>
      <trkpt lat="52.1217" lon="5.6589">
        <time>2017-09-22T00:17:58Z</time>
      </trkpt>
      <trkpt lat="52.1225" lon="5.66099">
        <time>2017-09-22T00:18:10Z</time>
      </trkpt>
      <trkpt lat="52.12281" lon="5.66172">
        <time>2017-09-22T00:18:14Z</time>
      </trkpt>
      <trkpt lat="52.12287" lon="5.66193">
        <time>2017-09-22T00:18:15Z</time>
      </trkpt>
      <trkpt lat="52.12285" lon="5.66223">
        <time>2017-09-22T00:18:17Z</time>
      </trkpt>
      <trkpt lat="52.12266" lon="5.66326">
        <time>2017-09-22T00:18:22Z</time>
      </trkpt>
      <trkpt lat="52.12201" lon="5.66586">
        <time>2017-09-22T00:18:35Z</time>
      </trkpt>
      <trkpt lat="52.12201" lon="5.66586">
        <time>2017-09-22T00:18:35Z</time>
      </trkpt>
      <trkpt lat="52.121" lon="5.66981">
        <time>2017-09-22T00:18:56Z</time>
      </trkpt>
      <trkpt lat="52.12084" lon="5.67067">
        <time>2017-09-22T00:19:00Z</time>
      </trkpt>
      <trkpt lat="52.12061" lon="5.67214">
        <time>2017-09-22T00:19:07Z</time>
      </trkpt>
      <trkpt lat="52.12045" lon="5.67326">
        <time>2017-09-22T00:19:13Z</time>
      </trkpt>
      <trkpt lat="52.12009" lon="5.67504">
        <time>2017-09-22T00:19:22Z</time>
      </trkpt>
      <trkpt lat="52.11997" lon="5.67634">
        <time>2017-09-22T00:19:28Z</time>
      </trkpt>
      <trkpt lat="52.11988" lon="5.67713">
        <time>2017-09-22T00:19:32Z</time>
      </trkpt>
      <trkpt lat="52.11988" lon="5.67713">
        <time>2017-09-22T00:19:32Z</time>
      </trkpt>
      <trkpt lat="52.11983" lon="5.67757">
        <time>2017-09-22T00:19:34Z</time>
      </trkpt>
      <trkpt lat="52.11981" lon="5.67766">
        <time>2017-09-22T00:19:34Z</time>
      </trkpt>
      <trkpt lat="52.11956" lon="5.67732">
        <time>2017-09-22T00:19:37Z</time>
      </trkpt>
      <trkpt lat="52.11956" lon="5.67732">
        <time>2017-09-22T00:19:37Z</time>
      </trkpt>
      <trkpt lat="52.11929" lon="5.67692">
        <time>2017-09-22T00:19:40Z</time>
      </trkpt>
      <trkpt lat="52.11867" lon="5.67839">
        <time>2017-09-22T00:19:48Z</time>
      </trkpt>
      <trkpt lat="52.11867" lon="5.67839">
        <time>2017-09-22T00:19:48Z</time>
      </trkpt>
      <trkpt lat="52.11626" lon="5.68407">
        <time>2017-09-22T00:20:21Z</time>
      </trkpt>
      <trkpt lat="52.11599" lon="5.68465">
        <time>2017-09-22T00:20:25Z</time>
      </trkpt>
      <trkpt lat="52.11512" lon="5.68614">
        <time>2017-09-22T00:20:34Z</time>
      </trkpt>
      <trkpt lat="52.11507" lon="5.68628">
        <time>2017-09-22T00:20:35Z</time>
      </trkpt>
      <trkpt lat="52.11505" lon="5.68635">
        <time>2017-09-22T00:20:36Z</time>
      </trkpt>
      <trkpt lat="52.11484" lon="5.68664">
        <time>2017-09-22T00:20:38Z</time>
      </trkpt>
      <trkpt lat="52.11467" lon="5.6869">
        <time>2017-09-22T00:20:40Z</time>
      </trkpt>
      <trkpt lat="52.11456" lon="5.68705">
        <time>2017-09-22T00:20:41Z</time>
      </trkpt>
      <trkpt lat="52.11437" lon="5.68724">
        <time>2017-09-22T00:20:42Z</time>
      </trkpt>
      <trkpt lat="52.11367" lon="5.68712">
        <time>2017-09-22T00:20:48Z</time>
      </trkpt>
      <trkpt lat="52.11367" lon="5.68712">
        <time>2017-09-22T00:20:48Z</time>
      </trkpt>
      <trkpt lat="52.11141" lon="5.68673">
        <time>2017-09-22T00:21:05Z</time>
      </trkpt>
      <trkpt lat="52.11108" lon="5.68921">
        <time>2017-09-22T00:21:18Z</time>
      </trkpt>
      <trkpt lat="52.11108" lon="5.68921">
        <time>2017-09-22T00:21:18Z</time>
      </trkpt>
      <trkpt lat="52.11041" lon="5.69424">
        <time>2017-09-22T00:21:42Z</time>
      </trkpt>
      <trkpt lat="52.11027" lon="5.69557">
        <time>2017-09-22T00:21:49Z</time>
      </trkpt>
      <trkpt lat="52.10987" lon="5.69845">
        <time>2017-09-22T00:22:03Z</time>
      </trkpt>
      <trkpt lat="52.10961" lon="5.69973">
        <time>2017-09-22T00:22:09Z</time>
      </trkpt>
      <trkpt lat="52.1093" lon="5.7012">
        <time>2017-09-22T00:22:16Z</time>
      </trkpt>
      <trkpt lat="52.10925" lon="5.70133">
        <time>2017-09-22T00:22:17Z</time>
      </trkpt>
      <trkpt lat="52.10849" lon="5.7032">
        <time>2017-09-22T00:22:28Z</time>
      </trkpt>
      <trkpt lat="52.1083" lon="5.70363">
        <time>2017-09-22T00:22:30Z</time>
      </trkpt>
      <trkpt lat="52.10807" lon="5.70425">
        <time>2017-09-22T00:22:34Z</time>
      </trkpt>
      <trkpt lat="52.10666" lon="5.70777">
        <time>2017-09-22T00:22:54Z</time>
      </trkpt>
      <trkpt lat="52.10666" lon="5.70777">
        <time>2017-09-22T00:22:54Z</time>
      </trkpt>
      <trkpt lat="52.10556" lon="5.71045">
        <time>2017-09-22T00:23:09Z</time>
      </trkpt>
      <trkpt lat="52.10552" lon="5.71052">
        <time>2017-09-22T00:23:10Z</time>
      </trkpt>
      <trkpt lat="52.10546" lon="5.71078">
        <time>2017-09-22T00:23:11Z</time>
      </trkpt>
      <trkpt lat="52.10545" lon="5.71109">
        <time>2017-09-22T00:23:13Z</time>
      </trkpt>
      <trkpt lat="52.10545" lon="5.71163">
        <time>2017-09-22T00:23:15Z</time>
      </trkpt>
      <trkpt lat="52.10545" lon="5.71206">
        <time>2017-09-22T00:23:17Z</time>
      </trkpt>
      <trkpt lat="52.1054" lon="5.71279">
        <time>2017-09-22T00:23:21Z</time>
      </trkpt>
      <trkpt lat="52.10533" lon="5.71343">
        <time>2017-09-22T00:23:24Z</time>
      </trkpt>
      <trkpt lat="52.10491" lon="5.71462">
        <time>2017-09-22T00:23:30Z</time>
      </trkpt>
      <trkpt lat="52.10379" lon="5.71773">
        <time>2017-09-22T00:23:47Z</time>
      </trkpt>
      <trkpt lat="52.10369" lon="5.71808">
        <time>2017-09-22T00:23:49Z</time>
      </trkpt>
      <trkpt lat="52.10337" lon="5.71942">
        <time>2017-09-22T00:23:56Z</time>
      </trkpt>
      <trkpt lat="52.10285" lon="5.72124">
        <time>2017-09-22T00:24:06Z</time>
      </trkpt>
      <trkpt lat="52.10273" lon="5.72191">
        <time>2017-09-22T00:24:09Z</time>
      </trkpt>
      <trkpt lat="52.10267" lon="5.72237">
        <time>2017-09-22T00:24:11Z</time>
      </trkpt>
      <trkpt lat="52.10266" lon="5.72272">
        <time>2017-09-22T00:24:13Z</time>
      </trkpt>
      <trkpt lat="52.10269" lon="5.72319">
        <time>2017-09-22T00:24:15Z</time>
      </trkpt>
      <trkpt lat="52.10275" lon="5.72351">
        <time>2017-09-22T00:24:17Z</time>
      </trkpt>
      <trkpt lat="52.10297" lon="5.7245">
        <time>2017-09-22T00:24:22Z</time>
      </trkpt>
      <trkpt lat="52.10298" lon="5.72476">
        <time>2017-09-22T00:24:23Z</time>
      </trkpt>
      <trkpt lat="52.10266" lon="5.72597">
        <time>2017-09-22T00:24:29Z</time>
      </trkpt>
      <trkpt lat="52.10233" lon="5.72718">
        <time>2017-09-22T00:24:36Z</time>
      </trkpt>
      <trkpt lat="52.10159" lon="5.7291">
        <time>2017-09-22T00:24:46Z</time>
      </trkpt>
      <trkpt lat="52.10146" lon="5.72953">
        <time>2017-09-22T00:24:49Z</time>
      </trkpt>
      <trkpt lat="52.10141" lon="5.72977">
        <time>2017-09-22T00:24:50Z</time>
      </trkpt>
      <trkpt lat="52.10128" lon="5.73005">
        <time>2017-09-22T00:24:52Z</time>
      </trkpt>
      <trkpt lat="52.10062" lon="5.73123">
        <time>2017-09-22T00:24:59Z</time>
      </trkpt>
      <trkpt lat="52.10053" lon="5.73127">
        <time>2017-09-22T00:25:00Z</time>
      </trkpt>
      <trkpt lat="52.09961" lon="5.73147">
        <time>2017-09-22T00:25:07Z</time>
      </trkpt>
      <trkpt lat="52.09852" lon="5.73171">
        <time>2017-09-22T00:25:16Z</time>
      </trkpt>
      <trkpt lat="52.09833" lon="5.73171">
        <time>2017-09-22T00:25:17Z</time>
      </trkpt>
      <trkpt lat="52.09777" lon="5.73164">
        <time>2017-09-22T00:25:22Z</time>
      </trkpt>
      <trkpt lat="52.09655" lon="5.73147">
        <time>2017-09-22T00:25:31Z</time>
      </trkpt>
      <trkpt lat="52.0962" lon="5.73149">
        <time>2017-09-22T00:25:34Z</time>
      </trkpt>
      <trkpt lat="52.09559" lon="5.73159">
        <time>2017-09-22T00:25:39Z</time>
      </trkpt>
      <trkpt lat="52.09559" lon="5.73159">
        <time>2017-09-22T00:25:39Z</time>
      </trkpt>
      <trkpt lat="52.09497" lon="5.7317">
        <time>2017-09-22T00:25:43Z</time>
      </trkpt>
      <trkpt lat="52.09475" lon="5.7317">
        <time>2017-09-22T00:25:45Z</time>
      </trkpt>
      <trkpt lat="52.09463" lon="5.73163">
        <time>2017-09-22T00:25:46Z</time>
      </trkpt>
      <trkpt lat="52.09456" lon="5.73157">
        <time>2017-09-22T00:25:47Z</time>
      </trkpt>
      <trkpt lat="52.09446" lon="5.73146">
        <time>2017-09-22T00:25:48Z</time>
      </trkpt>
      <trkpt lat="52.09442" lon="5.73141">
        <time>2017-09-22T00:25:48Z</time>
      </trkpt>
      <trkpt lat="52.09439" lon="5.73152">
        <time>2017-09-22T00:25:49Z</time>
      </trkpt>
      <trkpt lat="52.09434" lon="5.73168">
        <time>2017-09-22T00:25:49Z</time>
      </trkpt>
      <trkpt lat="52.09453" lon="5.73187">
        <time>2017-09-22T00:25:51Z</time>
      </trkpt>
      <trkpt lat="52.09482" lon="5.73209">
        <time>2017-09-22T00:25:54Z</time>
      </trkpt>
      <trkpt lat="52.09496" lon="5.7322">
        <time>2017-09-22T00:25:55Z</time>
      </trkpt>
      <trkpt lat="52.09496" lon="5.7322">
        <time>2017-09-22T00:25:55Z</time>
      </trkpt>
      <trkpt lat="52.09513" lon="5.7323">
        <time>2017-09-22T00:25:56Z</time>
      </trkpt>
      <trkpt lat="52.09517" lon="5.73232">
        <time>2017-09-22T00:25:57Z</time>
      </trkpt>
      <trkpt lat="52.0957" lon="5.73274">
        <time>2017-09-22T00:26:01Z</time>
      </trkpt>
      <trkpt lat="52.09712" lon="5.73428">
        <time>2017-09-22T00:26:14Z</time>
      </trkpt>
      <trkpt lat="52.09726" lon="5.73446">
        <time>2017-09-22T00:26:16Z</time>
      </trkpt>
      <trkpt lat="52.09736" lon="5.73464">
        <time>2017-09-22T00:26:17Z</time>
      </trkpt>
      <trkpt lat="52.09764" lon="5.73522">
        <time>2017-09-22T00:26:20Z</time>
      </trkpt>
      <trkpt lat="52.09786" lon="5.73602">
        <time>2017-09-22T00:26:25Z</time>
      </trkpt>
      <trkpt lat="52.09828" lon="5.73882">
        <time>2017-09-22T00:26:38Z</time>
      </trkpt>
      <trkpt lat="52.09895" lon="5.74338">
        <time>2017-09-22T00:27:01Z</time>
      </trkpt>
      <trkpt lat="52.09904" lon="5.74394">
        <time>2017-09-22T00:27:04Z</time>
      </trkpt>
      <trkpt lat="52.09921" lon="5.74456">
        <time>2017-09-22T00:27:07Z</time>
      </trkpt>
      <trkpt lat="52.09953" lon="5.74531">
        <time>2017-09-22T00:27:11Z</time>
      </trkpt>
      <trkpt lat="52.10019" lon="5.74663">
        <time>2017-09-22T00:27:19Z</time>
      </trkpt>
      <trkpt lat="52.1004" lon="5.74712">
        <time>2017-09-22T00:27:22Z</time>
      </trkpt>
      <trkpt lat="52.1005" lon="5.74743">
        <time>2017-09-22T00:27:24Z</time>
      </trkpt>
      <trkpt lat="52.10063" lon="5.748">
        <time>2017-09-22T00:27:27Z</time>
      </trkpt>
      <trkpt lat="52.10069" lon="5.74856">
        <time>2017-09-22T00:27:29Z</time>
      </trkpt>
      <trkpt lat="52.10071" lon="5.74896">
        <time>2017-09-22T00:27:31Z</time>
      </trkpt>
      <trkpt lat="52.10073" lon="5.75207">
        <time>2017-09-22T00:27:46Z</time>
      </trkpt>
      <trkpt lat="52.10073" lon="5.75318">
        <time>2017-09-22T00:27:51Z</time>
      </trkpt>
      <trkpt lat="52.10073" lon="5.7537">
        <time>2017-09-22T00:27:54Z</time>
      </trkpt>
      <trkpt lat="52.10073" lon="5.7537">
        <time>2017-09-22T00:27:54Z</time>
      </trkpt>
      <trkpt lat="52.10075" lon="5.75955">
        <time>2017-09-22T00:28:22Z</time>
      </trkpt>
      <trkpt lat="52.10075" lon="5.75955">
        <time>2017-09-22T00:28:22Z</time>
      </trkpt>
      <trkpt lat="52.10075" lon="5.76216">
        <time>2017-09-22T00:28:34Z</time>
      </trkpt>
      <trkpt lat="52.10074" lon="5.76227">
        <time>2017-09-22T00:28:35Z</time>
      </trkpt>
      <trkpt lat="52.10074" lon="5.76265">
        <time>2017-09-22T00:28:37Z</time>
      </trkpt>
      <trkpt lat="52.10073" lon="5.76266">
        <time>2017-09-22T00:28:37Z</time>
      </trkpt>
      <trkpt lat="52.1007" lon="5.76269">
        <time>2017-09-22T00:28:37Z</time>
      </trkpt>
      <trkpt lat="52.10068" lon="5.76273">
        <time>2017-09-22T00:28:37Z</time>
      </trkpt>
      <trkpt lat="52.10066" lon="5.76283">
        <time>2017-09-22T00:28:38Z</time>
      </trkpt>
      <trkpt lat="52.10066" lon="5.76293">
        <time>2017-09-22T00:28:38Z</time>
      </trkpt>
      <trkpt lat="52.1007" lon="5.76302">
        <time>2017-09-22T00:28:39Z</time>
      </trkpt>
      <trkpt lat="52.10073" lon="5.76305">
        <time>2017-09-22T00:28:39Z</time>
      </trkpt>
      <trkpt lat="52.10074" lon="5.76306">
        <time>2017-09-22T00:28:39Z</time>
      </trkpt>
      <trkpt lat="52.10076" lon="5.76314">
        <time>2017-09-22T00:28:39Z</time>
      </trkpt>
      <trkpt lat="52.10077" lon="5.76354">
        <time>2017-09-22T00:28:41Z</time>
      </trkpt>
      <trkpt lat="52.1008" lon="5.7638">
        <time>2017-09-22T00:28:43Z</time>
      </trkpt>
      <trkpt lat="52.10087" lon="5.76419">
        <time>2017-09-22T00:28:45Z</time>
      </trkpt>
      <trkpt lat="52.10104" lon="5.76483">
        <time>2017-09-22T00:28:48Z</time>
      </trkpt>
      <trkpt lat="52.10119" lon="5.76517">
        <time>2017-09-22T00:28:50Z</time>
      </trkpt>
      <trkpt lat="52.10206" lon="5.76688">
        <time>2017-09-22T00:29:00Z</time>
      </trkpt>
      <trkpt lat="52.10257" lon="5.76786">
        <time>2017-09-22T00:29:07Z</time>
      </trkpt>
      <trkpt lat="52.10304" lon="5.76878">
        <time>2017-09-22T00:29:12Z</time>
      </trkpt>
      <trkpt lat="52.1033" lon="5.76932">
        <time>2017-09-22T00:29:16Z</time>
      </trkpt>
      <trkpt lat="52.10356" lon="5.76985">
        <time>2017-09-22T00:29:19Z</time>
      </trkpt>
      <trkpt lat="52.10355" lon="5.76987">
        <time>2017-09-22T00:29:19Z</time>
      </trkpt>
      <trkpt lat="52.10354" lon="5.76991">
        <time>2017-09-22T00:29:19Z</time>
      </trkpt>
      <trkpt lat="52.10353" lon="5.76995">
        <time>2017-09-22T00:29:19Z</time>
      </trkpt>
      <trkpt lat="52.10353" lon="5.77003">
        <time>2017-09-22T00:29:20Z</time>
      </trkpt>
      <trkpt lat="52.10355" lon="5.77011">
        <time>2017-09-22T00:29:20Z</time>
      </trkpt>
      <trkpt lat="52.10359" lon="5.77016">
        <time>2017-09-22T00:29:21Z</time>
      </trkpt>
      <trkpt lat="52.10364" lon="5.77019">
        <time>2017-09-22T00:29:21Z</time>
      </trkpt>
      <trkpt lat="52.1037" lon="5.77018">
        <time>2017-09-22T00:29:21Z</time>
      </trkpt>
      <trkpt lat="52.10371" lon="5.77017">
        <time>2017-09-22T00:29:22Z</time>
      </trkpt>
      <trkpt lat="52.10379" lon="5.7703">
        <time>2017-09-22T00:29:22Z</time>
      </trkpt>
      <trkpt lat="52.10393" lon="5.77056">
        <time>2017-09-22T00:29:24Z</time>
      </trkpt>
      <trkpt lat="52.10399" lon="5.77061">
        <time>2017-09-22T00:29:25Z</time>
      </trkpt>
      <trkpt lat="52.10473" lon="5.77205">
        <time>2017-09-22T00:29:34Z</time>
      </trkpt>
      <trkpt lat="52.10549" lon="5.77351">
        <time>2017-09-22T00:29:43Z</time>
      </trkpt>
      <trkpt lat="52.10636" lon="5.77517">
        <time>2017-09-22T00:29:53Z</time>
      </trkpt>
      <trkpt lat="52.1066" lon="5.77556">
        <time>2017-09-22T00:29:56Z</time>
      </trkpt>
      <trkpt lat="52.10683" lon="5.77587">
        <time>2017-09-22T00:29:58Z</time>
      </trkpt>
      <trkpt lat="52.10708" lon="5.77618">
        <time>2017-09-22T00:30:00Z</time>
      </trkpt>
      <trkpt lat="52.1073" lon="5.7764">
        <time>2017-09-22T00:30:02Z</time>
      </trkpt>
      <trkpt lat="52.10756" lon="5.77665">
        <time>2017-09-22T00:30:05Z</time>
      </trkpt>
      <trkpt lat="52.10756" lon="5.77665">
        <time>2017-09-22T00:30:05Z</time>
      </trkpt>
      <trkpt lat="52.10779" lon="5.77685">
        <time>2017-09-22T00:30:07Z</time>
      </trkpt>
      <trkpt lat="52.10809" lon="5.77705">
        <time>2017-09-22T00:30:09Z</time>
      </trkpt>
      <trkpt lat="52.11042" lon="5.77847">
        <time>2017-09-22T00:30:29Z</time>
      </trkpt>
      <trkpt lat="52.11085" lon="5.77876">
        <time>2017-09-22T00:30:32Z</time>
      </trkpt>
      <trkpt lat="52.11108" lon="5.77898">
        <time>2017-09-22T00:30:34Z</time>
      </trkpt>
      <trkpt lat="52.1113" lon="5.77924">
        <time>2017-09-22T00:30:36Z</time>
      </trkpt>
      <trkpt lat="52.11149" lon="5.77953">
        <time>2017-09-22T00:30:38Z</time>
      </trkpt>
      <trkpt lat="52.11577" lon="5.78671">
        <time>2017-09-22T00:31:26Z</time>
      </trkpt>
      <trkpt lat="52.12034" lon="5.7951">
        <time>2017-09-22T00:32:20Z</time>
      </trkpt>
      <trkpt lat="52.12074" lon="5.79585">
        <time>2017-09-22T00:32:24Z</time>
      </trkpt>
      <trkpt lat="52.12094" lon="5.79631">
        <time>2017-09-22T00:32:27Z</time>
      </trkpt>
      <trkpt lat="52.1211" lon="5.79688">
        <time>2017-09-22T00:32:30Z</time>
      </trkpt>
      <trkpt lat="52.12118" lon="5.79733">
        <time>2017-09-22T00:32:32Z</time>
      </trkpt>
      <trkpt lat="52.12124" lon="5.79792">
        <time>2017-09-22T00:32:35Z</time>
      </trkpt>
      <trkpt lat="52.12131" lon="5.79962">
        <time>2017-09-22T00:32:43Z</time>
      </trkpt>
      <trkpt lat="52.12135" lon="5.80299">
        <time>2017-09-22T00:32:59Z</time>
      </trkpt>
      <trkpt lat="52.12136" lon="5.80796">
        <time>2017-09-22T00:33:23Z</time>
      </trkpt>
      <trkpt lat="52.12134" lon="5.81087">
        <time>2017-09-22T00:33:37Z</time>
      </trkpt>
      <trkpt lat="52.12134" lon="5.81087">
        <time>2017-09-22T00:33:37Z</time>
      </trkpt>
      <trkpt lat="52.12132" lon="5.81436">
        <time>2017-09-22T00:33:53Z</time>
      </trkpt>
      <trkpt lat="52.12135" lon="5.81518">
        <time>2017-09-22T00:33:57Z</time>
      </trkpt>
      <trkpt lat="52.12141" lon="5.81599">
        <time>2017-09-22T00:34:01Z</time>
      </trkpt>
      <trkpt lat="52.1215" lon="5.81681">
        <time>2017-09-22T00:34:05Z</time>
      </trkpt>
      <trkpt lat="52.12215" lon="5.82189">
        <time>2017-09-22T00:34:30Z</time>
      </trkpt>
      <trkpt lat="52.12226" lon="5.82257">
        <time>2017-09-22T00:34:33Z</time>
      </trkpt>
      <trkpt lat="52.12241" lon="5.8234">
        <time>2017-09-22T00:34:37Z</time>
      </trkpt>
      <trkpt lat="52.12261" lon="5.82432">
        <time>2017-09-22T00:34:42Z</time>
      </trkpt>
      <trkpt lat="52.12417" lon="5.83088">
        <time>2017-09-22T00:35:16Z</time>
      </trkpt>
      <trkpt lat="52.12436" lon="5.83172">
        <time>2017-09-22T00:35:20Z</time>
      </trkpt>
      <trkpt lat="52.12669" lon="5.84368">
        <time>2017-09-22T00:36:20Z</time>
      </trkpt>
      <trkpt lat="52.12688" lon="5.84475">
        <time>2017-09-22T00:36:25Z</time>
      </trkpt>
      <trkpt lat="52.12696" lon="5.84554">
        <time>2017-09-22T00:36:29Z</time>
      </trkpt>
      <trkpt lat="52.12697" lon="5.84648">
        <time>2017-09-22T00:36:33Z</time>
      </trkpt>
      <trkpt lat="52.12697" lon="5.84746">
        <time>2017-09-22T00:36:38Z</time>
      </trkpt>
      <trkpt lat="52.12695" lon="5.84822">
        <time>2017-09-22T00:36:42Z</time>
      </trkpt>
      <trkpt lat="52.12589" lon="5.86071">
        <time>2017-09-22T00:37:42Z</time>
      </trkpt>
      <trkpt lat="52.12556" lon="5.86409">
        <time>2017-09-22T00:37:58Z</time>
      </trkpt>
      <trkpt lat="52.12556" lon="5.86409">
        <time>2017-09-22T00:37:58Z</time>
      </trkpt>
      <trkpt lat="52.12539" lon="5.86548">
        <time>2017-09-22T00:38:05Z</time>
      </trkpt>
      <trkpt lat="52.12517" lon="5.86662">
        <time>2017-09-22T00:38:10Z</time>
      </trkpt>
      <trkpt lat="52.12471" lon="5.86825">
        <time>2017-09-22T00:38:19Z</time>
      </trkpt>
      <trkpt lat="52.12444" lon="5.86917">
        <time>2017-09-22T00:38:24Z</time>
      </trkpt>
      <trkpt lat="52.12427" lon="5.86987">
        <time>2017-09-22T00:38:27Z</time>
      </trkpt>
      <trkpt lat="52.12415" lon="5.87047">
        <time>2017-09-22T00:38:30Z</time>
      </trkpt>
      <trkpt lat="52.12406" lon="5.87109">
        <time>2017-09-22T00:38:33Z</time>
      </trkpt>
      <trkpt lat="52.124" lon="5.87186">
        <time>2017-09-22T00:38:37Z</time>
      </trkpt>
      <trkpt lat="52.12399" lon="5.87243">
        <time>2017-09-22T00:38:40Z</time>
      </trkpt>
      <trkpt lat="52.124" lon="5.87297">
        <time>2017-09-22T00:38:42Z</time>
      </trkpt>
      <trkpt lat="52.12403" lon="5.8735">
        <time>2017-09-22T00:38:45Z</time>
      </trkpt>
      <trkpt lat="52.12407" lon="5.8739">
        <time>2017-09-22T00:38:47Z</time>
      </trkpt>
      <trkpt lat="52.12414" lon="5.87443">
        <time>2017-09-22T00:38:50Z</time>
      </trkpt>
      <trkpt lat="52.12417" lon="5.87455">
        <time>2017-09-22T00:38:50Z</time>
      </trkpt>
      <trkpt lat="52.12417" lon="5.87455">
        <time>2017-09-22T00:38:50Z</time>
      </trkpt>
      <trkpt lat="52.12421" lon="5.8748">
        <time>2017-09-22T00:38:51Z</time>
      </trkpt>
      <trkpt lat="52.12416" lon="5.87493">
        <time>2017-09-22T00:38:52Z</time>
      </trkpt>
      <trkpt lat="52.12413" lon="5.87498">
        <time>2017-09-22T00:38:52Z</time>
      </trkpt>
      <trkpt lat="52.12415" lon="5.87507">
        <time>2017-09-22T00:38:53Z</time>
      </trkpt>
      <trkpt lat="52.1242" lon="5.87529">
        <time>2017-09-22T00:38:54Z</time>
      </trkpt>
      <trkpt lat="52.12425" lon="5.87538">
        <time>2017-09-22T00:38:55Z</time>
      </trkpt>
      <trkpt lat="52.12425" lon="5.87538">
        <time>2017-09-22T00:38:55Z</time>
      </trkpt>
      <trkpt lat="52.12443" lon="5.87568">
        <time>2017-09-22T00:38:57Z</time>
      </trkpt>
      <trkpt lat="52.12464" lon="5.87613">
        <time>2017-09-22T00:38:59Z</time>
      </trkpt>
      <trkpt lat="52.1249" lon="5.87688">
        <time>2017-09-22T00:39:03Z</time>
      </trkpt>
      <trkpt lat="52.12555" lon="5.87764">
        <time>2017-09-22T00:39:10Z</time>
      </trkpt>
      <trkpt lat="52.12542" lon="5.87789">
        <time>2017-09-22T00:39:11Z</time>
      </trkpt>
      <trkpt lat="52.12534" lon="5.87798">
        <time>2017-09-22T00:39:12Z</time>
      </trkpt>
      <trkpt lat="52.12459" lon="5.87856">
        <time>2017-09-22T00:39:18Z</time>
      </trkpt>
      <trkpt lat="52.12459" lon="5.87856">
        <time>2017-09-22T00:39:18Z</time>
      </trkpt>
      <trkpt lat="52.12363" lon="5.8793">
        <time>2017-09-22T00:39:27Z</time>
      </trkpt>
      <trkpt lat="52.12284" lon="5.87989">
        <time>2017-09-22T00:39:33Z</time>
      </trkpt>
      <trkpt lat="52.11972" lon="5.88229">
        <time>2017-09-22T00:40:00Z</time>
      </trkpt>
      <trkpt lat="52.11965" lon="5.88234">
        <time>2017-09-22T00:40:01Z</time>
      </trkpt>
      <trkpt lat="52.11965" lon="5.88234">
        <time>2017-09-22T00:40:01Z</time>
      </trkpt>
      <trkpt lat="52.11888" lon="5.88294">
        <time>2017-09-22T00:40:07Z</time>
      </trkpt>
      <trkpt lat="52.1188" lon="5.88301">
        <time>2017-09-22T00:40:08Z</time>
      </trkpt>
      <trkpt lat="52.11882" lon="5.8831">
        <time>2017-09-22T00:40:08Z</time>
      </trkpt>
      <trkpt lat="52.11885" lon="5.88322">
        <time>2017-09-22T00:40:09Z</time>
      </trkpt>
      <trkpt lat="52.11894" lon="5.8839">
        <time>2017-09-22T00:40:12Z</time>
      </trkpt>
      <trkpt lat="52.11911" lon="5.88594">
        <time>2017-09-22T00:40:22Z</time>
      </trkpt>
      <trkpt lat="52.11911" lon="5.88594">
        <time>2017-09-22T00:40:22Z</time>
      </trkpt>
      <trkpt lat="52.11958" lon="5.89164">
        <time>2017-09-22T00:40:50Z</time>
      </trkpt>
      <trkpt lat="52.1197" lon="5.89293">
        <time>2017-09-22T00:40:56Z</time>
      </trkpt>
      <trkpt lat="52.12" lon="5.89562">
        <time>2017-09-22T00:41:09Z</time>
      </trkpt>
      <trkpt lat="52.12004" lon="5.89603">
        <time>2017-09-22T00:41:11Z</time>
      </trkpt>
      <trkpt lat="52.11997" lon="5.89617">
        <time>2017-09-22T00:41:12Z</time>
      </trkpt>
      <trkpt lat="52.11994" lon="5.8962">
        <time>2017-09-22T00:41:12Z</time>
      </trkpt>
      <trkpt lat="52.11937" lon="5.89638">
        <time>2017-09-22T00:41:17Z</time>
      </trkpt>
      <trkpt lat="52.11881" lon="5.89655">
        <time>2017-09-22T00:41:21Z</time>
      </trkpt>
      <trkpt lat="52.11869" lon="5.89661">
        <time>2017-09-22T00:41:22Z</time>
      </trkpt>
      <trkpt lat="52.11864" lon="5.89664">
        <time>2017-09-22T00:41:22Z</time>
      </trkpt>
      <trkpt lat="52.11858" lon="5.8967">
        <time>2017-09-22T00:41:23Z</time>
      </trkpt>
      <trkpt lat="52.1185" lon="5.89684">
        <time>2017-09-22T00:41:24Z</time>
      </trkpt>
      <trkpt lat="52.11844" lon="5.897">
        <time>2017-09-22T00:41:25Z</time>
      </trkpt>
      <trkpt lat="52.11841" lon="5.89718">
        <time>2017-09-22T00:41:26Z</time>
      </trkpt>
      <trkpt lat="52.11838" lon="5.89768">
        <time>2017-09-22T00:41:28Z</time>
      </trkpt>
      <trkpt lat="52.11822" lon="5.90335">
        <time>2017-09-22T00:41:55Z</time>
      </trkpt>
      <trkpt lat="52.11805" lon="5.90797">
        <time>2017-09-22T00:42:17Z</time>
      </trkpt>
      <trkpt lat="52.11795" lon="5.91107">
        <time>2017-09-22T00:42:32Z</time>
      </trkpt>
      <trkpt lat="52.11792" lon="5.91132">
        <time>2017-09-22T00:42:33Z</time>
      </trkpt>
      <trkpt lat="52.11786" lon="5.91155">
        <time>2017-09-22T00:42:34Z</time>
      </trkpt>
      <trkpt lat="52.11775" lon="5.91187">
        <time>2017-09-22T00:42:36Z</time>
      </trkpt>
      <trkpt lat="52.11703" lon="5.91338">
        <time>2017-09-22T00:42:45Z</time>
      </trkpt>
      <trkpt lat="52.11636" lon="5.91476">
        <time>2017-09-22T00:42:54Z</time>
      </trkpt>
      <trkpt lat="52.11632" lon="5.9149">
        <time>2017-09-22T00:42:54Z</time>
      </trkpt>
      <trkpt lat="52.11625" lon="5.91514">
        <time>2017-09-22T00:42:56Z</time>
      </trkpt>
      <trkpt lat="52.1162" lon="5.9154">
        <time>2017-09-22T00:42:57Z</time>
      </trkpt>
      <trkpt lat="52.11616" lon="5.91581">
        <time>2017-09-22T00:42:59Z</time>
      </trkpt>
      <trkpt lat="52.11605" lon="5.91943">
        <time>2017-09-22T00:43:16Z</time>
      </trkpt>
      <trkpt lat="52.116" lon="5.91999">
        <time>2017-09-22T00:43:19Z</time>
      </trkpt>
      <trkpt lat="52.11569" lon="5.92143">
        <time>2017-09-22T00:43:26Z</time>
      </trkpt>
      <trkpt lat="52.1153" lon="5.92307">
        <time>2017-09-22T00:43:34Z</time>
      </trkpt>
      <trkpt lat="52.11475" lon="5.92503">
        <time>2017-09-22T00:43:45Z</time>
      </trkpt>
      <trkpt lat="52.11457" lon="5.92548">
        <time>2017-09-22T00:43:47Z</time>
      </trkpt>
      <trkpt lat="52.11325" lon="5.92793">
        <time>2017-09-22T00:44:03Z</time>
      </trkpt>
      <trkpt lat="52.11304" lon="5.92822">
        <time>2017-09-22T00:44:05Z</time>
      </trkpt>
      <trkpt lat="52.11278" lon="5.92847">
        <time>2017-09-22T00:44:07Z</time>
      </trkpt>
      <trkpt lat="52.11182" lon="5.92921">
        <time>2017-09-22T00:44:16Z</time>
      </trkpt>
      <trkpt lat="52.11159" lon="5.92943">
        <time>2017-09-22T00:44:18Z</time>
      </trkpt>
      <trkpt lat="52.11148" lon="5.92957">
        <time>2017-09-22T00:44:19Z</time>
      </trkpt>
      <trkpt lat="52.11116" lon="5.93022">
        <time>2017-09-22T00:44:23Z</time>
      </trkpt>
      <trkpt lat="52.11017" lon="5.93251">
        <time>2017-09-22T00:44:36Z</time>
      </trkpt>
      <trkpt lat="52.10934" lon="5.93438">
        <time>2017-09-22T00:44:47Z</time>
      </trkpt>
      <trkpt lat="52.10905" lon="5.93509">
        <time>2017-09-22T00:44:51Z</time>
      </trkpt>
      <trkpt lat="52.10897" lon="5.93533">
        <time>2017-09-22T00:44:52Z</time>
      </trkpt>
      <trkpt lat="52.10891" lon="5.93561">
        <time>2017-09-22T00:44:54Z</time>
      </trkpt>
      <trkpt lat="52.10884" lon="5.93614">
        <time>2017-09-22T00:44:56Z</time>
      </trkpt>
      <trkpt lat="52.10879" lon="5.93641">
        <time>2017-09-22T00:44:58Z</time>
      </trkpt>
      <trkpt lat="52.10872" lon="5.93664">
        <time>2017-09-22T00:44:59Z</time>
      </trkpt>
      <trkpt lat="52.10852" lon="5.93705">
        <time>2017-09-22T00:45:01Z</time>
      </trkpt>
      <trkpt lat="52.10831" lon="5.93745">
        <time>2017-09-22T00:45:04Z</time>
      </trkpt>
      <trkpt lat="52.10807" lon="5.93794">
        <time>2017-09-22T00:45:07Z</time>
      </trkpt>
      <trkpt lat="52.10797" lon="5.93823">
        <time>2017-09-22T00:45:09Z</time>
      </trkpt>
      <trkpt lat="52.10789" lon="5.93862">
        <time>2017-09-22T00:45:10Z</time>
      </trkpt>
      <trkpt lat="52.10777" lon="5.93934">
        <time>2017-09-22T00:45:14Z</time>
      </trkpt>
      <trkpt lat="52.10757" lon="5.9406">
        <time>2017-09-22T00:45:20Z</time>
      </trkpt>
      <trkpt lat="52.10749" lon="5.94128">
        <time>2017-09-22T00:45:24Z</time>
      </trkpt>
      <trkpt lat="52.10728" lon="5.94295">
        <time>2017-09-22T00:45:32Z</time>
      </trkpt>
      <trkpt lat="52.10667" lon="5.9473">
        <time>2017-09-22T00:45:53Z</time>
      </trkpt>
      <trkpt lat="52.10659" lon="5.94781">
        <time>2017-09-22T00:45:55Z</time>
      </trkpt>
      <trkpt lat="52.10653" lon="5.94847">
        <time>2017-09-22T00:45:59Z</time>
      </trkpt>
      <trkpt lat="52.10656" lon="5.94902">
        <time>2017-09-22T00:46:01Z</time>
      </trkpt>
      <trkpt lat="52.10663" lon="5.94945">
        <time>2017-09-22T00:46:03Z</time>
      </trkpt>
      <trkpt lat="52.10663" lon="5.94945">
        <time>2017-09-22T00:46:03Z</time>
      </trkpt>
      <trkpt lat="52.10681" lon="5.95076">
        <time>2017-09-22T00:46:10Z</time>
      </trkpt>
      <trkpt lat="52.10688" lon="5.95152">
        <time>2017-09-22T00:46:13Z</time>
      </trkpt>
      <trkpt lat="52.10693" lon="5.95219">
        <time>2017-09-22T00:46:17Z</time>
      </trkpt>
      <trkpt lat="52.10694" lon="5.95228">
        <time>2017-09-22T00:46:17Z</time>
      </trkpt>
      <trkpt lat="52.10629" lon="5.9522">
        <time>2017-09-22T00:46:22Z</time>
      </trkpt>
      <trkpt lat="52.10534" lon="5.95209">
        <time>2017-09-22T00:46:30Z</time>
      </trkpt>
      <trkpt lat="52.10505" lon="5.95206">
        <time>2017-09-22T00:46:32Z</time>
      </trkpt>
      <trkpt lat="52.1033" lon="5.952">
        <time>2017-09-22T00:46:45Z</time>
      </trkpt>
      <trkpt lat="52.10215" lon="5.95193">
        <time>2017-09-22T00:46:54Z</time>
      </trkpt>
      <trkpt lat="52.10215" lon="5.95193">
        <time>2017-09-22T00:46:54Z</time>
      </trkpt>
      <trkpt lat="52.10189" lon="5.95192">
        <time>2017-09-22T00:46:56Z</time>
      </trkpt>
      <trkpt lat="52.10175" lon="5.95198">
        <time>2017-09-22T00:46:57Z</time>
      </trkpt>
      <trkpt lat="52.10159" lon="5.95211">
        <time>2017-09-22T00:46:59Z</time>
      </trkpt>
      <trkpt lat="52.10145" lon="5.95242">
        <time>2017-09-22T00:47:01Z</time>
      </trkpt>
      <trkpt lat="52.1014" lon="5.95275">
        <time>2017-09-22T00:47:02Z</time>
      </trkpt>
      <trkpt lat="52.10144" lon="5.95315">
        <time>2017-09-22T00:47:04Z</time>
      </trkpt>
      <trkpt lat="52.10181" lon="5.95418">
        <time>2017-09-22T00:47:10Z</time>
      </trkpt>
      <trkpt lat="52.10195" lon="5.95456">
        <time>2017-09-22T00:47:12Z</time>
      </trkpt>
      <trkpt lat="52.1022" lon="5.95511">
        <time>2017-09-22T00:47:15Z</time>
      </trkpt>
      <trkpt lat="52.10321" lon="5.9573">
        <time>2017-09-22T00:47:28Z</time>
      </trkpt>
      <trkpt lat="52.1036" lon="5.9582">
        <time>2017-09-22T00:47:34Z</time>
      </trkpt>
      <trkpt lat="52.10459" lon="5.96124">
        <time>2017-09-22T00:47:50Z</time>
      </trkpt>
      <trkpt lat="52.10541" lon="5.96369">
        <time>2017-09-22T00:48:03Z</time>
      </trkpt>
      <trkpt lat="52.10541" lon="5.96369">
        <time>2017-09-22T00:48:03Z</time>
      </trkpt>
      <trkpt lat="52.10624" lon="5.96608">
        <time>2017-09-22T00:48:16Z</time>
      </trkpt>
      <trkpt lat="52.10773" lon="5.97072">
        <time>2017-09-22T00:48:41Z</time>
      </trkpt>
      <trkpt lat="52.10785" lon="5.97109">
        <time>2017-09-22T00:48:43Z</time>
      </trkpt>
      <trkpt lat="52.10797" lon="5.97155">
        <time>2017-09-22T00:48:46Z</time>
      </trkpt>
      <trkpt lat="52.10901" lon="5.97596">
        <time>2017-09-22T00:49:08Z</time>
      </trkpt>
      <trkpt lat="52.11013" lon="5.98096">
        <time>2017-09-22T00:49:34Z</time>
      </trkpt>
      <trkpt lat="52.11079" lon="5.98378">
        <time>2017-09-22T00:49:48Z</time>
      </trkpt>
      <trkpt lat="52.1129" lon="5.99295">
        <time>2017-09-22T00:50:35Z</time>
      </trkpt>
      <trkpt lat="52.11352" lon="5.99564">
        <time>2017-09-22T00:50:48Z</time>
      </trkpt>
      <trkpt lat="52.11456" lon="6.00016">
        <time>2017-09-22T00:51:11Z</time>
      </trkpt>
      <trkpt lat="52.11466" lon="6.00069">
        <time>2017-09-22T00:51:14Z</time>
      </trkpt>
      <trkpt lat="52.11471" lon="6.00134">
        <time>2017-09-22T00:51:17Z</time>
      </trkpt>
      <trkpt lat="52.11486" lon="6.00328">
        <time>2017-09-22T00:51:27Z</time>
      </trkpt>
      <trkpt lat="52.11499" lon="6.00532">
        <time>2017-09-22T00:51:36Z</time>
      </trkpt>
      <trkpt lat="52.11503" lon="6.00594">
        <time>2017-09-22T00:51:39Z</time>
      </trkpt>
      <trkpt lat="52.11511" lon="6.00689">
        <time>2017-09-22T00:51:44Z</time>
      </trkpt>
      <trkpt lat="52.11514" lon="6.00702">
        <time>2017-09-22T00:51:44Z</time>
      </trkpt>
      <trkpt lat="52.11521" lon="6.00784">
        <time>2017-09-22T00:51:48Z</time>
      </trkpt>
      <trkpt lat="52.11545" lon="6.00982">
        <time>2017-09-22T00:51:58Z</time>
      </trkpt>
      <trkpt lat="52.11569" lon="6.01192">
        <time>2017-09-22T00:52:08Z</time>
      </trkpt>
      <trkpt lat="52.11608" lon="6.015">
        <time>2017-09-22T00:52:23Z</time>
      </trkpt>
      <trkpt lat="52.11608" lon="6.015">
        <time>2017-09-22T00:52:23Z</time>
      </trkpt>
      <trkpt lat="52.11634" lon="6.01732">
        <time>2017-09-22T00:52:34Z</time>
      </trkpt>
      <trkpt lat="52.11635" lon="6.01753">
        <time>2017-09-22T00:52:35Z</time>
      </trkpt>
      <trkpt lat="52.11645" lon="6.01756">
        <time>2017-09-22T00:52:36Z</time>
      </trkpt>
      <trkpt lat="52.11662" lon="6.01767">
        <time>2017-09-22T00:52:38Z</time>
      </trkpt>
      <trkpt lat="52.11678" lon="6.01789">
        <time>2017-09-22T00:52:39Z</time>
      </trkpt>
      <trkpt lat="52.11737" lon="6.0181">
        <time>2017-09-22T00:52:44Z</time>
      </trkpt>
      <trkpt lat="52.11734" lon="6.01856">
        <time>2017-09-22T00:52:46Z</time>
      </trkpt>
      <trkpt lat="52.11734" lon="6.01901">
        <time>2017-09-22T00:52:48Z</time>
      </trkpt>
      <trkpt lat="52.11736" lon="6.01912">
        <time>2017-09-22T00:52:49Z</time>
      </trkpt>
      <trkpt lat="52.11741" lon="6.0194">
        <time>2017-09-22T00:52:50Z</time>
      </trkpt>
      <trkpt lat="52.11756" lon="6.01975">
        <time>2017-09-22T00:52:52Z</time>
      </trkpt>
      <trkpt lat="52.11772" lon="6.02001">
        <time>2017-09-22T00:52:54Z</time>
      </trkpt>
      <trkpt lat="52.11787" lon="6.02011">
        <time>2017-09-22T00:52:55Z</time>
      </trkpt>
      <trkpt lat="52.11799" lon="6.02018">
        <time>2017-09-22T00:52:56Z</time>
      </trkpt>
      <trkpt lat="52.11823" lon="6.02023">
        <time>2017-09-22T00:52:58Z</time>
      </trkpt>
      <trkpt lat="52.11871" lon="6.02027">
        <time>2017-09-22T00:53:02Z</time>
      </trkpt>
      <trkpt lat="52.11887" lon="6.02027">
        <time>2017-09-22T00:53:03Z</time>
      </trkpt>
      <trkpt lat="52.11887" lon="6.02027">
        <time>2017-09-22T00:53:03Z</time>
      </trkpt>
      <trkpt lat="52.11904" lon="6.02026">
        <time>2017-09-22T00:53:04Z</time>
      </trkpt>
      <trkpt lat="52.11927" lon="6.02025">
        <time>2017-09-22T00:53:06Z</time>
      </trkpt>
      <trkpt lat="52.11946" lon="6.02027">
        <time>2017-09-22T00:53:08Z</time>
      </trkpt>
      <trkpt lat="52.11962" lon="6.02023">
        <time>2017-09-22T00:53:09Z</time>
      </trkpt>
      <trkpt lat="52.11984" lon="6.02024">
        <time>2017-09-22T00:53:11Z</time>
      </trkpt>
      <trkpt lat="52.11993" lon="6.02024">
        <time>2017-09-22T00:53:11Z</time>
      </trkpt>
      <trkpt lat="52.12016" lon="6.02028">
        <time>2017-09-22T00:53:13Z</time>
      </trkpt>
      <trkpt lat="52.12041" lon="6.0204">
        <time>2017-09-22T00:53:15Z</time>
      </trkpt>
      <trkpt lat="52.12057" lon="6.02053">
        <time>2017-09-22T00:53:17Z</time>
      </trkpt>
      <trkpt lat="52.12071" lon="6.02068">
        <time>2017-09-22T00:53:18Z</time>
      </trkpt>
      <trkpt lat="52.12095" lon="6.02102">
        <time>2017-09-22T00:53:20Z</time>
      </trkpt>
      <trkpt lat="52.12128" lon="6.02157">
        <time>2017-09-22T00:53:24Z</time>
      </trkpt>
      <trkpt lat="52.1216" lon="6.02196">
        <time>2017-09-22T00:53:27Z</time>
      </trkpt>
      <trkpt lat="52.12199" lon="6.02241">
        <time>2017-09-22T00:53:31Z</time>
      </trkpt>
      <trkpt lat="52.12203" lon="6.02246">
        <time>2017-09-22T00:53:31Z</time>
      </trkpt>
      <trkpt lat="52.12221" lon="6.02271">
        <time>2017-09-22T00:53:33Z</time>
      </trkpt>
      <trkpt lat="52.12211" lon="6.02283">
        <time>2017-09-22T00:53:34Z</time>
      </trkpt>
      <trkpt lat="52.12185" lon="6.02312">
        <time>2017-09-22T00:53:37Z</time>
      </trkpt>
      <trkpt lat="52.12165" lon="6.02327">
        <time>2017-09-22T00:53:38Z</time>
      </trkpt>
      <trkpt lat="52.12137" lon="6.02352">
        <time>2017-09-22T00:53:41Z</time>
      </trkpt>
      <trkpt lat="52.12106" lon="6.02376">
        <time>2017-09-22T00:53:43Z</time>
      </trkpt>
      <trkpt lat="52.12093" lon="6.02385">
        <time>2017-09-22T00:53:44Z</time>
      </trkpt>
      <trkpt lat="52.12089" lon="6.02389">
        <time>2017-09-22T00:53:45Z</time>
      </trkpt>
      <trkpt lat="52.12084" lon="6.02394">
        <time>2017-09-22T00:53:45Z</time>
      </trkpt>
      <trkpt lat="52.12086" lon="6.02412">
        <time>2017-09-22T00:53:46Z</time>
      </trkpt>
      <trkpt lat="52.12092" lon="6.02438">
        <time>2017-09-22T00:53:47Z</time>
      </trkpt>
      <trkpt lat="52.12096" lon="6.02458">
        <time>2017-09-22T00:53:48Z</time>
      </trkpt>
      <trkpt lat="52.12102" lon="6.02528">
        <time>2017-09-22T00:53:52Z</time>
      </trkpt>
      <trkpt lat="52.12102" lon="6.02528">
        <time>2017-09-22T00:53:52Z</time>
      </trkpt>
      <trkpt lat="52.12119" lon="6.02722">
        <time>2017-09-22T00:54:01Z</time>
      </trkpt>
      <trkpt lat="52.12122" lon="6.02762">
        <time>2017-09-22T00:54:03Z</time>
      </trkpt>
      <trkpt lat="52.12123" lon="6.02779">
        <time>2017-09-22T00:54:04Z</time>
      </trkpt>
      <trkpt lat="52.12113" lon="6.02786">
        <time>2017-09-22T00:54:05Z</time>
      </trkpt>
      <trkpt lat="52.12084" lon="6.02807">
        <time>2017-09-22T00:54:07Z</time>
      </trkpt>
      <trkpt lat="52.12051" lon="6.02831">
        <time>2017-09-22T00:54:10Z</time>
      </trkpt>
      <trkpt lat="52.1203" lon="6.02847">
        <time>2017-09-22T00:54:12Z</time>
      </trkpt>
      <trkpt lat="52.12023" lon="6.02858">
        <time>2017-09-22T00:54:13Z</time>
      </trkpt>
      <trkpt lat="52.12019" lon="6.02865">
        <time>2017-09-22T00:54:13Z</time>
      </trkpt>
      <trkpt lat="52.12023" lon="6.02877">
        <time>2017-09-22T00:54:14Z</time>
      </trkpt>
      <trkpt lat="52.12031" lon="6.02896">
        <time>2017-09-22T00:54:15Z</time>
      </trkpt>
      <trkpt lat="52.12049" lon="6.02959">
        <time>2017-09-22T00:54:18Z</time>
      </trkpt>
      <trkpt lat="52.1207" lon="6.03032">
        <time>2017-09-22T00:54:22Z</time>
      </trkpt>
      <trkpt lat="52.12093" lon="6.03113">
        <time>2017-09-22T00:54:26Z</time>
      </trkpt>
      <trkpt lat="52.12093" lon="6.03113">
        <time>2017-09-22T00:54:26Z</time>
      </trkpt>
      <trkpt lat="52.12043" lon="6.0294">
        <time>2017-09-22T00:54:35Z</time>
      </trkpt>
      <trkpt lat="52.12028" lon="6.02889">
        <time>2017-09-22T00:54:38Z</time>
      </trkpt>
      <trkpt lat="52.12019" lon="6.02865">
        <time>2017-09-22T00:54:39Z</time>
      </trkpt>
      <trkpt lat="52.12006" lon="6.02888">
        <time>2017-09-22T00:54:41Z</time>
      </trkpt>
      <trkpt lat="52.11993" lon="6.02909">
        <time>2017-09-22T00:54:42Z</time>
      </trkpt>
      <trkpt lat="52.11986" lon="6.02917">
        <time>2017-09-22T00:54:43Z</time>
      </trkpt>
      <trkpt lat="52.11963" lon="6.02933">
        <time>2017-09-22T00:54:45Z</time>
      </trkpt>
      <trkpt lat="52.11942" lon="6.02949">
        <time>2017-09-22T00:54:47Z</time>
      </trkpt>
      <trkpt lat="52.11917" lon="6.02967">
        <time>2017-09-22T00:54:49Z</time>
      </trkpt>
      <trkpt lat="52.11896" lon="6.02988">
        <time>2017-09-22T00:54:51Z</time>
      </trkpt>
      <trkpt lat="52.11853" lon="6.03056">
        <time>2017-09-22T00:54:55Z</time>
      </trkpt>
      <trkpt lat="52.11835" lon="6.03078">
        <time>2017-09-22T00:54:57Z</time>
      </trkpt>
      <trkpt lat="52.11828" lon="6.03084">
        <time>2017-09-22T00:54:58Z</time>
      </trkpt>
      <trkpt lat="52.11828" lon="6.03084">
        <time>2017-09-22T00:54:58Z</time>
      </trkpt>
      <trkpt lat="52.11841" lon="6.03073">
        <time>2017-09-22T00:54:59Z</time>
      </trkpt>
      <trkpt lat="52.11865" lon="6.03037">
        <time>2017-09-22T00:55:01Z</time>
      </trkpt>
      <trkpt lat="52.11898" lon="6.02985">
        <time>2017-09-22T00:55:05Z</time>
      </trkpt>
      <trkpt lat="52.11907" lon="6.02976">
        <time>2017-09-22T00:55:06Z</time>
      </trkpt>
      <trkpt lat="52.11929" lon="6.02958">
        <time>2017-09-22T00:55:08Z</time>
      </trkpt>
      <trkpt lat="52.11986" lon="6.02917">
        <time>2017-09-22T00:55:13Z</time>
      </trkpt>
      <trkpt lat="52.11998" lon="6.02901">
        <time>2017-09-22T00:55:14Z</time>
      </trkpt>
      <trkpt lat="52.12017" lon="6.0287">
        <time>2017-09-22T00:55:16Z</time>
      </trkpt>
      <trkpt lat="52.12019" lon="6.02865">
        <time>2017-09-22T00:55:16Z</time>
      </trkpt>
      <trkpt lat="52.12023" lon="6.02877">
        <time>2017-09-22T00:55:17Z</time>
      </trkpt>
      <trkpt lat="52.12031" lon="6.02896">
        <time>2017-09-22T00:55:18Z</time>
      </trkpt>
      <trkpt lat="52.12049" lon="6.02959">
        <time>2017-09-22T00:55:21Z</time>
      </trkpt>
      <trkpt lat="52.12101" lon="6.03141">
        <time>2017-09-22T00:55:31Z</time>
      </trkpt>
      <trkpt lat="52.12109" lon="6.03168">
        <time>2017-09-22T00:55:32Z</time>
      </trkpt>
      <trkpt lat="52.12111" lon="6.03173">
        <time>2017-09-22T00:55:32Z</time>
      </trkpt>
      <trkpt lat="52.1211" lon="6.03178">
        <time>2017-09-22T00:55:33Z</time>
      </trkpt>
      <trkpt lat="52.12107" lon="6.03187">
        <time>2017-09-22T00:55:33Z</time>
      </trkpt>
      <trkpt lat="52.12069" lon="6.03317">
        <time>2017-09-22T00:55:40Z</time>
      </trkpt>
      <trkpt lat="52.1206" lon="6.03344">
        <time>2017-09-22T00:55:41Z</time>
      </trkpt>
      <trkpt lat="52.1204" lon="6.03426">
        <time>2017-09-22T00:55:46Z</time>
      </trkpt>
      <trkpt lat="52.1196" lon="6.03737">
        <time>2017-09-22T00:56:02Z</time>
      </trkpt>
      <trkpt lat="52.11948" lon="6.03786">
        <time>2017-09-22T00:56:04Z</time>
      </trkpt>
      <trkpt lat="52.11948" lon="6.03786">
        <time>2017-09-22T00:56:04Z</time>
      </trkpt>
      <trkpt lat="52.11934" lon="6.03845">
        <time>2017-09-22T00:56:07Z</time>
      </trkpt>
      <trkpt lat="52.11922" lon="6.03911">
        <time>2017-09-22T00:56:11Z</time>
      </trkpt>
      <trkpt lat="52.11919" lon="6.03941">
        <time>2017-09-22T00:56:12Z</time>
      </trkpt>
      <trkpt lat="52.11919" lon="6.03964">
        <time>2017-09-22T00:56:13Z</time>
      </trkpt>
      <trkpt lat="52.11926" lon="6.04009">
        <time>2017-09-22T00:56:15Z</time>
      </trkpt>
      <trkpt lat="52.11926" lon="6.04038">
        <time>2017-09-22T00:56:17Z</time>
      </trkpt>
      <trkpt lat="52.11921" lon="6.04098">
        <time>2017-09-22T00:56:20Z</time>
      </trkpt>
      <trkpt lat="52.11918" lon="6.04121">
        <time>2017-09-22T00:56:21Z</time>
      </trkpt>
      <trkpt lat="52.11908" lon="6.04163">
        <time>2017-09-22T00:56:23Z</time>
      </trkpt>
      <trkpt lat="52.11885" lon="6.04237">
        <time>2017-09-22T00:56:27Z</time>
      </trkpt>
      <trkpt lat="52.11883" lon="6.04262">
        <time>2017-09-22T00:56:28Z</time>
      </trkpt>
      <trkpt lat="52.11875" lon="6.04272">
        <time>2017-09-22T00:56:29Z</time>
      </trkpt>
      <trkpt lat="52.11868" lon="6.04299">
        <time>2017-09-22T00:56:30Z</time>
      </trkpt>
      <trkpt lat="52.11833" lon="6.04417">
        <time>2017-09-22T00:56:36Z</time>
      </trkpt>
      <trkpt lat="52.11767" lon="6.0462">
        <time>2017-09-22T00:56:47Z</time>
      </trkpt>
      <trkpt lat="52.11753" lon="6.04661">
        <time>2017-09-22T00:56:50Z</time>
      </trkpt>
      <trkpt lat="52.11741" lon="6.04687">
        <time>2017-09-22T00:56:51Z</time>
      </trkpt>
      <trkpt lat="52.11712" lon="6.04744">
        <time>2017-09-22T00:56:55Z</time>
      </trkpt>
      <trkpt lat="52.11672" lon="6.0483">
        <time>2017-09-22T00:57:00Z</time>
      </trkpt>
      <trkpt lat="52.11651" lon="6.04881">
        <time>2017-09-22T00:57:03Z</time>
      </trkpt>
      <trkpt lat="52.11651" lon="6.04881">
        <time>2017-09-22T00:57:03Z</time>
      </trkpt>
      <trkpt lat="52.11632" lon="6.04928">
        <time>2017-09-22T00:57:05Z</time>
      </trkpt>
      <trkpt lat="52.11627" lon="6.0494">
        <time>2017-09-22T00:57:06Z</time>
      </trkpt>
      <trkpt lat="52.1163" lon="6.04943">
        <time>2017-09-22T00:57:06Z</time>
      </trkpt>
      <trkpt lat="52.1164" lon="6.04953">
        <time>2017-09-22T00:57:07Z</time>
      </trkpt>
      <trkpt lat="52.11648" lon="6.04963">
        <time>2017-09-22T00:57:08Z</time>
      </trkpt>
      <trkpt lat="52.11659" lon="6.04987">
        <time>2017-09-22T00:57:10Z</time>
      </trkpt>
      <trkpt lat="52.11659" lon="6.04993">
        <time>2017-09-22T00:57:10Z</time>
      </trkpt>
      <trkpt lat="52.11657" lon="6.05022">
        <time>2017-09-22T00:57:11Z</time>
      </trkpt>
      <trkpt lat="52.11657" lon="6.05022">
        <time>2017-09-22T00:57:11Z</time>
      </trkpt>
      <trkpt lat="52.11657" lon="6.05022">
        <time>2017-09-22T00:57:11Z</time>
      </trkpt>
      <trkpt lat="52.11558" lon="6.05142">
        <time>2017-09-22T00:57:21Z</time>
      </trkpt>
      <trkpt lat="52.1154" lon="6.05168">
        <time>2017-09-22T00:57:23Z</time>
      </trkpt>
      <trkpt lat="52.11525" lon="6.05206">
        <time>2017-09-22T00:57:25Z</time>
      </trkpt>
      <trkpt lat="52.1146" lon="6.05402">
        <time>2017-09-22T00:57:35Z</time>
      </trkpt>
      <trkpt lat="52.1146" lon="6.05402">
        <time>2017-09-22T00:57:35Z</time>
      </trkpt>
      <trkpt lat="52.11401" lon="6.05578">
        <time>2017-09-22T00:57:45Z</time>
      </trkpt>
      <trkpt lat="52.11291" lon="6.05936">
        <time>2017-09-22T00:58:04Z</time>
      </trkpt>
      <trkpt lat="52.11288" lon="6.05943">
        <time>2017-09-22T00:58:04Z</time>
      </trkpt>
      <trkpt lat="52.11279" lon="6.05951">
        <time>2017-09-22T00:58:05Z</time>
      </trkpt>
      <trkpt lat="52.11276" lon="6.05975">
        <time>2017-09-22T00:58:06Z</time>
      </trkpt>
      <trkpt lat="52.11272" lon="6.05993">
        <time>2017-09-22T00:58:07Z</time>
      </trkpt>
      <trkpt lat="52.11264" lon="6.06016">
        <time>2017-09-22T00:58:09Z</time>
      </trkpt>
      <trkpt lat="52.11264" lon="6.06016">
        <time>2017-09-22T00:58:09Z</time>
      </trkpt>
      <trkpt lat="52.11212" lon="6.06157">
        <time>2017-09-22T00:58:16Z</time>
      </trkpt>
      <trkpt lat="52.11116" lon="6.06428">
        <time>2017-09-22T00:58:31Z</time>
      </trkpt>
      <trkpt lat="52.11098" lon="6.06478">
        <time>2017-09-22T00:58:34Z</time>
      </trkpt>
      <trkpt lat="52.11061" lon="6.0654">
        <time>2017-09-22T00:58:38Z</time>
      </trkpt>
      <trkpt lat="52.11037" lon="6.06589">
        <time>2017-09-22T00:58:41Z</time>
      </trkpt>
      <trkpt lat="52.11029" lon="6.06616">
        <time>2017-09-22T00:58:43Z</time>
      </trkpt>
      <trkpt lat="52.11021" lon="6.06633">
        <time>2017-09-22T00:58:44Z</time>
      </trkpt>
      <trkpt lat="52.11036" lon="6.06637">
        <time>2017-09-22T00:58:45Z</time>
      </trkpt>
      <trkpt lat="52.11036" lon="6.06637">
        <time>2017-09-22T00:58:45Z</time>
      </trkpt>
      <trkpt lat="52.11049" lon="6.06641">
        <time>2017-09-22T00:58:46Z</time>
      </trkpt>
      <trkpt lat="52.11053" lon="6.06703">
        <time>2017-09-22T00:58:49Z</time>
      </trkpt>
      <trkpt lat="52.11053" lon="6.06703">
        <time>2017-09-22T00:58:49Z</time>
      </trkpt>
      <trkpt lat="52.11057" lon="6.06762">
        <time>2017-09-22T00:58:52Z</time>
      </trkpt>
      <trkpt lat="52.11058" lon="6.06823">
        <time>2017-09-22T00:58:55Z</time>
      </trkpt>
      <trkpt lat="52.11056" lon="6.06864">
        <time>2017-09-22T00:58:57Z</time>
      </trkpt>
      <trkpt lat="52.11036" lon="6.07086">
        <time>2017-09-22T00:59:07Z</time>
      </trkpt>
      <trkpt lat="52.10982" lon="6.07054">
        <time>2017-09-22T00:59:12Z</time>
      </trkpt>
      <trkpt lat="52.10965" lon="6.07037">
        <time>2017-09-22T00:59:13Z</time>
      </trkpt>
      <trkpt lat="52.10953" lon="6.07022">
        <time>2017-09-22T00:59:14Z</time>
      </trkpt>
      <trkpt lat="52.10925" lon="6.06985">
        <time>2017-09-22T00:59:17Z</time>
      </trkpt>
      <trkpt lat="52.10925" lon="6.06985">
        <time>2017-09-22T00:59:17Z</time>
      </trkpt>
      <trkpt lat="52.1088" lon="6.06936">
        <time>2017-09-22T00:59:21Z</time>
      </trkpt>
      <trkpt lat="52.10864" lon="6.06929">
        <time>2017-09-22T00:59:23Z</time>
      </trkpt>
      <trkpt lat="52.10837" lon="6.06932">
        <time>2017-09-22T00:59:25Z</time>
      </trkpt>
      <trkpt lat="52.10817" lon="6.06931">
        <time>2017-09-22T00:59:26Z</time>
      </trkpt>
      <trkpt lat="52.10804" lon="6.06928">
        <time>2017-09-22T00:59:27Z</time>
      </trkpt>
      <trkpt lat="52.10779" lon="6.06866">
        <time>2017-09-22T00:59:31Z</time>
      </trkpt>
      <trkpt lat="52.10775" lon="6.06862">
        <time>2017-09-22T00:59:31Z</time>
      </trkpt>
      <trkpt lat="52.1077" lon="6.06861">
        <time>2017-09-22T00:59:32Z</time>
      </trkpt>
      <trkpt lat="52.1076" lon="6.06866">
        <time>2017-09-22T00:59:33Z</time>
      </trkpt>
      <trkpt lat="52.10755" lon="6.06875">
        <time>2017-09-22T00:59:33Z</time>
      </trkpt>
      <trkpt lat="52.1074" lon="6.06891">
        <time>2017-09-22T00:59:34Z</time>
      </trkpt>
      <trkpt lat="52.10721" lon="6.06919">
        <time>2017-09-22T00:59:36Z</time>
      </trkpt>
      <trkpt lat="52.10715" lon="6.06931">
        <time>2017-09-22T00:59:37Z</time>
      </trkpt>
      <trkpt lat="52.10708" lon="6.06954">
        <time>2017-09-22T00:59:38Z</time>
      </trkpt>
      <trkpt lat="52.10708" lon="6.06954">
        <time>2017-09-22T00:59:38Z</time>
      </trkpt>
      <trkpt lat="52.10657" lon="6.07134">
        <time>2017-09-22T00:59:48Z</time>
      </trkpt>
      <trkpt lat="52.10633" lon="6.07207">
        <time>2017-09-22T00:59:52Z</time>
      </trkpt>
      <trkpt lat="52.10641" lon="6.07228">
        <time>2017-09-22T00:59:53Z</time>
      </trkpt>
      <trkpt lat="52.10641" lon="6.07228">
        <time>2017-09-22T00:59:53Z</time>
      </trkpt>
      <trkpt lat="52.10651" lon="6.07255">
        <time>2017-09-22T00:59:55Z</time>
      </trkpt>
      <trkpt lat="52.10663" lon="6.07269">
        <time>2017-09-22T00:59:56Z</time>
      </trkpt>
      <trkpt lat="52.10668" lon="6.0728">
        <time>2017-09-22T00:59:56Z</time>
      </trkpt>
    </trkseg>
  </trk>
</gpx>

This is Sliced Diazo Plone Theme